Time;durP1;ratioP1;P1;durP2;ratioP2;P2;SDS_P1;SDS_P2;PMS_P1;PMS_P2;Temp;Humidity;BMP_temperature;BMP_pressure;BME280_temperature;BME280_humidity;BME280_pressure;Samples;Min_cycle;Max_cycle;Signal;HPM_P1;HPM_P2
2022/11/08 00:01:32;;;;;;;32.40;4.75;;;;;;;6.16;85.00;96401.31;5051918;28;20044;-76
2022/11/08 00:03:59;;;;;;;29.05;4.32;;;;;;;6.11;85.55;96409.47;5051989;28;20052;-80
2022/11/08 00:14:37;;;;;;;16.90;4.47;;;;;;;5.84;85.28;96405.41;5051534;28;20542;-77
2022/11/08 00:17:05;;;;;;;22.63;3.88;;;;;;;5.80;85.69;96398.19;5051523;28;20052;-79
2022/11/08 00:19:32;;;;;;;32.13;4.03;;;;;;;5.77;85.63;96402.25;5051794;28;20055;-77
2022/11/08 00:21:58;;;;;;;8.15;3.92;;;;;;;5.73;86.07;96398.50;5051699;28;20389;-77
2022/11/08 00:24:25;;;;;;;18.17;4.88;;;;;;;5.75;86.70;96401.75;5051136;28;20045;-77
2022/11/08 00:26:52;;;;;;;29.75;4.30;;;;;;;5.73;86.79;96398.50;5051657;28;20037;-78
2022/11/08 00:29:18;;;;;;;23.70;4.40;;;;;;;5.72;86.85;96397.72;5051006;28;20051;-78
2022/11/08 00:31:45;;;;;;;17.50;4.65;;;;;;;5.73;87.25;96398.50;5051602;28;20511;-78
2022/11/08 00:34:13;;;;;;;27.50;5.00;;;;;;;5.74;87.13;96389.31;5051077;28;20068;-80
2022/11/08 00:36:39;;;;;;;20.60;4.75;;;;;;;5.70;86.88;96393.69;5051149;28;20045;-76
2022/11/08 00:39:06;;;;;;;17.30;4.28;;;;;;;5.67;86.57;96399.66;5050889;28;20526;-79
2022/11/08 00:41:32;;;;;;;17.60;4.72;;;;;;;5.64;86.56;96392.13;5051154;28;20040;-77
2022/11/08 00:43:59;;;;;;;39.83;5.13;;;;;;;5.65;86.82;96388.34;5051198;28;20518;-76
2022/11/08 00:46:25;;;;;;;36.58;5.43;;;;;;;5.64;86.68;96384.03;5051193;28;20415;-77
2022/11/08 00:48:52;;;;;;;8.40;4.18;;;;;;;5.62;86.84;96386.19;5051268;28;20151;-77
2022/11/08 00:51:20;;;;;;;39.55;5.00;;;;;;;5.64;87.66;96389.44;5050832;28;20052;-77
2022/11/08 00:53:46;;;;;;;24.08;3.80;;;;;;;5.63;87.95;96385.09;5051366;28;20044;-78
2022/11/08 00:56:13;;;;;;;33.05;4.70;;;;;;;5.62;88.30;96381.59;5050524;28;20051;-77
2022/11/08 00:58:40;;;;;;;8.02;3.78;;;;;;;5.63;87.82;96382.41;5051251;28;20059;-77
2022/11/08 01:01:11;;;;;;;33.75;4.75;;;;;;;5.65;87.78;96374.84;5050193;28;20387;-78
2022/11/08 01:03:38;;;;;;;8.90;4.22;;;;;;;5.64;87.81;96368.63;5051038;28;20033;-77
2022/11/08 01:06:08;;;;;;;11.95;4.20;;;;;;;5.65;88.00;96369.44;5050583;28;20076;-77
2022/11/08 01:08:36;;;;;;;23.83;4.28;;;;;;;5.64;87.85;96367.81;5050257;28;20037;-77
2022/11/08 01:11:05;;;;;;;18.23;4.05;;;;;;;5.64;88.37;96357.03;5047342;28;20044;-77
2022/11/08 01:13:32;;;;;;;27.30;4.10;;;;;;;5.63;88.84;96352.69;5050742;28;20041;-77
2022/11/08 01:16:06;;;;;;;22.20;3.80;;;;;;;5.63;89.35;96349.97;5046366;28;20049;-77
2022/11/08 01:18:32;;;;;;;;;;;;;;;5.63;89.43;96355.38;5051175;28;20041;-77
2022/11/08 01:20:59;;;;;;;24.60;4.07;;;;;;;5.60;89.29;96345.97;5050392;28;20271;-77
2022/11/08 01:23:25;;;;;;;34.47;4.38;;;;;;;5.63;89.25;96348.09;5049936;28;20040;-77
2022/11/08 01:25:53;;;;;;;35.13;4.55;;;;;;;5.62;88.38;96337.56;5050461;28;20071;-77
2022/11/08 01:28:20;;;;;;;37.08;4.78;;;;;;;5.62;88.24;96334.88;5050130;28;20127;-77
2022/11/08 01:30:46;;;;;;;25.17;4.50;;;;;;;5.61;87.62;96330.56;5050473;28;20052;-78
2022/11/08 01:33:14;;;;;;;19.02;4.15;;;;;;;5.55;87.30;96326.31;5050064;28;20047;-77
2022/11/08 01:35:45;;;;;;;7.72;3.85;;;;;;;5.49;87.01;96331.78;5050376;28;20072;-78
2022/11/08 01:38:11;;;;;;;15.35;3.22;;;;;;;5.44;87.12;96326.41;5049896;28;20049;-78
2022/11/08 01:40:43;;;;;;;10.90;4.20;;;;;;;5.39;87.05;96318.38;5050471;28;20070;-77
2022/11/08 01:43:39;;;;;;;22.92;3.45;;;;;;;5.37;86.85;96320.53;5050172;28;20052;-81
2022/11/08 01:46:31;;;;;;;6.80;3.70;;;;;;;5.33;86.96;96311.41;5049589;28;20063;-81
2022/11/08 01:49:07;;;;;;;7.38;3.58;;;;;;;5.30;86.84;96308.47;5050234;28;20482;-77
2022/11/08 01:51:38;;;;;;;18.45;3.47;;;;;;;5.25;86.28;96312.03;5050267;28;20048;-78
2022/11/08 01:54:10;;;;;;;15.25;3.88;;;;;;;5.20;86.15;96314.75;5049990;28;20503;-78
2022/11/08 01:56:38;;;;;;;29.58;3.53;;;;;;;5.14;86.32;96315.91;5050266;28;20044;-76
2022/11/08 01:59:10;;;;;;;33.90;4.40;;;;;;;5.08;86.12;96320.53;5049409;28;20065;-80
2022/11/08 02:01:36;;;;;;;19.58;3.80;;;;;;;5.03;86.40;96325.19;5049939;28;20041;-78
2022/11/08 02:04:04;;;;;;;14.00;3.95;;;;;;;4.98;86.50;96313.34;5049834;28;20045;-78
2022/11/08 02:06:34;;;;;;;18.70;4.00;;;;;;;4.95;86.70;96313.09;5050087;28;20048;-78
2022/11/08 02:09:03;;;;;;;29.70;4.07;;;;;;;4.93;87.12;96299.09;5050022;28;20045;-80
2022/11/08 02:11:30;;;;;;;12.70;3.92;;;;;;;4.93;87.36;96299.09;5049761;28;20043;-82
2022/11/08 02:13:58;;;;;;;34.10;4.43;;;;;;;4.90;87.21;96302.34;5050034;28;20041;-77
2022/11/08 02:16:26;;;;;;;25.17;3.97;;;;;;;4.83;86.68;96299.16;5049020;28;20045;-77
2022/11/08 02:18:52;;;;;;;13.73;3.45;;;;;;;4.78;86.57;96299.22;5049998;28;20044;-79
2022/11/08 02:21:27;;;;;;;20.83;4.13;;;;;;;4.75;86.51;96303.28;5050577;28;20049;-77
2022/11/08 02:23:57;;;;;;;17.45;4.07;;;;;;;4.70;86.72;96296.03;5053958;28;20033;-78
2022/11/08 02:26:25;;;;;;;14.23;3.40;;;;;;;4.68;86.84;96287.41;5053569;28;20044;-77
2022/11/08 02:28:52;;;;;;;10.35;3.95;;;;;;;4.67;87.06;96291.19;5054002;28;20039;-78
2022/11/08 02:31:19;;;;;;;14.13;4.22;;;;;;;4.67;87.49;96285.00;5053335;28;20041;-77
2022/11/08 02:33:47;;;;;;;14.57;3.85;;;;;;;4.66;87.38;96286.09;5053797;28;20049;-78
2022/11/08 02:36:17;;;;;;;13.00;4.18;;;;;;;4.65;87.44;96287.19;5053337;28;20059;-80
2022/11/08 02:38:46;;;;;;;10.77;3.65;;;;;;;4.65;87.39;96282.59;5053786;28;20128;-77
2022/11/08 02:41:14;;;;;;;13.23;3.88;;;;;;;4.68;88.09;96287.41;5053292;28;20052;-80
2022/11/08 02:43:41;;;;;;;12.15;4.13;;;;;;;4.70;88.44;96296.03;5053733;28;20055;-78
2022/11/08 02:46:07;;;;;;;13.65;4.20;;;;;;;4.67;87.85;96290.41;5052840;28;20045;-81
2022/11/08 02:48:34;;;;;;;15.30;4.35;;;;;;;4.63;87.34;96279.34;5053443;28;20049;-78
2022/11/08 02:51:01;;;;;;;15.65;3.70;;;;;;;4.62;87.61;96277.75;5053490;28;20059;-78
2022/11/08 02:53:27;;;;;;;34.50;4.45;;;;;;;4.60;87.54;96285.31;5053193;28;20037;-78
2022/11/08 02:55:54;;;;;;;45.90;5.43;;;;;;;4.56;87.76;96278.06;5053542;28;20039;-76
2022/11/08 02:58:22;;;;;;;55.92;5.35;;;;;;;4.55;87.88;96282.66;5052839;28;20056;-77
2022/11/08 03:00:48;;;;;;;27.35;4.07;;;;;;;4.55;88.46;96271.09;5053159;28;20044;-76
2022/11/08 03:03:15;;;;;;;46.58;5.15;;;;;;;4.52;88.61;96272.44;5052547;28;20511;-78
2022/11/08 03:05:42;;;;;;;57.13;5.25;;;;;;;4.49;88.27;96273.00;5053058;28;20044;-77
2022/11/08 03:08:09;;;;;;;48.33;4.57;;;;;;;4.47;88.67;96268.97;5052744;28;20107;-77
2022/11/08 03:10:35;;;;;;;15.90;3.65;;;;;;;4.48;88.71;96265.19;5053104;28;20045;-77
2022/11/08 03:13:04;;;;;;;16.50;4.35;;;;;;;4.45;88.65;96261.16;5052518;28;20056;-78
2022/11/08 03:15:33;;;;;;;13.48;3.67;;;;;;;4.45;88.39;96264.66;5052898;28;20069;-79
2022/11/08 03:18:01;;;;;;;11.38;3.55;;;;;;;4.45;88.40;96255.78;5052393;28;20681;-77
2022/11/08 03:20:27;;;;;;;17.40;4.10;;;;;;;4.43;87.90;96257.94;5052655;28;20052;-80
2022/11/08 03:22:57;;;;;;;13.07;4.20;;;;;;;4.36;86.94;96263.66;5052711;28;20045;-77
2022/11/08 03:25:23;;;;;;;10.50;4.63;;;;;;;4.30;86.32;96264.78;5052422;28;20640;-76
2022/11/08 03:27:50;;;;;;;10.45;3.97;;;;;;;4.27;86.40;96259.13;5052606;28;20044;-77
2022/11/08 03:30:17;;;;;;;14.98;4.25;;;;;;;4.20;86.33;96254.06;5052187;28;20137;-79
2022/11/08 03:32:45;;;;;;;18.67;4.15;;;;;;;4.15;86.14;96254.88;5052204;28;20128;-77
2022/11/08 03:35:12;;;;;;;53.42;5.43;;;;;;;4.14;86.90;96252.47;5051972;28;20045;-82
2022/11/08 03:37:38;;;;;;;4.55;3.17;;;;;;;4.14;87.91;96264.06;5052569;28;20055;-77
2022/11/08 03:40:06;;;;;;;11.88;4.40;;;;;;;4.15;87.94;96260.28;5052047;28;20048;-77
2022/11/08 03:42:32;;;;;;;14.50;4.60;;;;;;;4.17;88.51;96266.19;5052313;28;20048;-77
2022/11/08 03:44:59;;;;;;;34.90;4.50;;;;;;;4.19;88.54;96257.84;5052335;28;20052;-78
2022/11/08 03:47:25;;;;;;;28.55;4.00;;;;;;;4.17;88.95;96265.38;5051458;28;20041;-77
2022/11/08 03:49:53;;;;;;;33.65;4.15;;;;;;;4.16;89.30;96264.59;5052374;28;20045;-76
2022/11/08 03:52:20;;;;;;;45.72;5.47;;;;;;;4.08;88.94;96267.06;5051819;28;20061;-76
2022/11/08 03:54:46;;;;;;;33.30;4.13;;;;;;;3.93;89.15;96263.38;5052266;28;20051;-77
2022/11/08 03:57:13;;;;;;;56.00;5.22;;;;;;;3.93;89.65;96266.06;5051703;28;20044;-77
2022/11/08 03:59:39;;;;;;;24.02;4.45;;;;;;;3.98;90.32;96267.13;5052112;28;20037;-77
2022/11/08 04:02:06;;;;;;;38.90;4.50;;;;;;;4.00;90.04;96264.97;5051735;28;20045;-78
2022/11/08 04:04:32;;;;;;;45.03;4.82;;;;;;;4.03;90.28;96259.03;5052059;28;20049;-77
2022/11/08 04:07:00;;;;;;;28.27;4.35;;;;;;;4.06;90.02;96259.25;5052124;28;20511;-79
2022/11/08 04:09:27;;;;;;;26.67;4.15;;;;;;;3.97;89.46;96260.09;5051647;28;20055;-77
2022/11/08 04:21:17;;;;;;;20.88;3.53;;;;;;;3.85;89.17;96249.66;5051102;28;20060;-78
2022/11/08 04:22:55;;;;;;;31.73;4.10;;;;;;;3.79;89.37;96248.09;5051713;28;20170;-77
2022/11/08 04:25:21;;;;;;;27.52;4.35;;;;;;;3.79;89.59;96235.44;5051147;28;20534;-76
2022/11/08 04:27:48;;;;;;;26.60;4.47;;;;;;;3.78;89.78;96220.34;5051521;28;20066;-80
2022/11/08 04:30:14;;;;;;;54.40;6.38;;;;;;;3.80;89.80;96231.66;5051137;28;20052;-78
2022/11/08 04:32:41;;;;;;;15.90;4.10;;;;;;;3.70;89.90;96239.78;5051381;28;20041;-76
2022/11/08 04:35:08;;;;;;;44.03;4.60;;;;;;;3.66;89.62;96230.66;5050975;28;20436;-78
2022/11/08 04:37:34;;;;;;;27.40;4.40;;;;;;;3.63;89.82;96233.91;5051574;28;20044;-77
2022/11/08 04:40:02;;;;;;;25.73;4.50;;;;;;;3.68;90.12;96220.41;5051208;28;20053;-77
2022/11/08 04:42:29;;;;;;;30.50;4.45;;;;;;;3.69;90.53;96223.91;5050967;28;20044;-78
2022/11/08 04:44:55;;;;;;;11.85;3.75;;;;;;;3.64;90.19;96213.97;5050445;28;20048;-77
2022/11/08 04:47:22;;;;;;;10.57;4.03;;;;;;;3.55;89.24;96221.00;5050143;28;20082;-77
2022/11/08 04:49:49;;;;;;;15.30;4.22;;;;;;;3.54;88.81;96224.78;5051154;28;20597;-79
2022/11/08 04:52:15;;;;;;;10.00;3.92;;;;;;;3.48;88.46;96225.88;5050739;28;20055;-76
2022/11/08 04:54:44;;;;;;;11.27;3.88;;;;;;;3.45;89.41;96218.38;5051098;28;20547;-78
2022/11/08 04:57:12;;;;;;;6.20;4.30;;;;;;;3.48;90.19;96220.50;5050437;28;20102;-78
2022/11/08 04:59:39;;;;;;;10.23;4.25;;;;;;;3.56;90.82;96222.63;5050595;28;20708;-77
2022/11/08 05:02:06;;;;;;;15.75;4.35;;;;;;;3.58;91.33;96215.06;5050471;28;20045;-76
2022/11/08 05:04:32;;;;;;;18.92;4.43;;;;;;;3.65;91.23;96212.88;5050788;28;20048;-77
2022/11/08 05:06:59;;;;;;;15.52;4.30;;;;;;;3.68;91.27;96209.63;5050966;28;20049;-76
2022/11/08 05:09:25;;;;;;;15.07;4.20;;;;;;;3.71;90.59;96213.66;5050314;28;20045;-76
2022/11/08 05:11:52;;;;;;;14.18;4.07;;;;;;;3.70;90.09;96207.47;5050774;28;20036;-76
2022/11/08 05:14:20;;;;;;;16.83;4.55;;;;;;;3.65;89.60;96204.78;5050339;28;20049;-75
2022/11/08 05:16:46;;;;;;;24.73;4.68;;;;;;;3.61;89.18;96209.16;5048372;28;20048;-80
2022/11/08 05:23:22;;;;;;;12.70;5.13;;;;;;;3.61;89.95;96209.16;5050151;28;20048;-77
2022/11/08 05:24:43;;;;;;;7.28;4.18;;;;;;;3.65;90.09;96204.78;5050573;28;20454;-78
2022/11/08 05:27:10;;;;;;;6.65;3.88;;;;;;;3.66;90.00;96211.81;5050210;28;20048;-77
2022/11/08 05:29:38;;;;;;;8.80;4.40;;;;;;;3.66;89.76;96206.44;5050398;28;20044;-79
2022/11/08 05:32:05;;;;;;;8.77;4.88;;;;;;;3.67;89.98;96202.66;5050083;28;20052;-77
2022/11/08 05:34:31;;;;;;;6.18;3.60;;;;;;;3.67;89.86;96197.25;5050230;28;20044;-77
2022/11/08 05:36:58;;;;;;;8.95;4.68;;;;;;;3.69;89.37;96205.84;5050391;28;20451;-76
2022/11/08 05:39:24;;;;;;;11.85;4.80;;;;;;;3.70;89.60;96204.75;5049762;28;20041;-77
2022/11/08 05:41:51;;;;;;;9.32;4.20;;;;;;;3.68;89.73;96209.63;5050324;28;20444;-78
2022/11/08 05:44:17;;;;;;;5.93;3.65;;;;;;;3.67;89.62;96202.66;5049753;28;20045;-78
2022/11/08 05:46:45;;;;;;;6.47;3.88;;;;;;;3.68;89.58;96201.56;5050152;28;20142;-79
2022/11/08 05:49:12;;;;;;;5.65;3.40;;;;;;;3.69;89.45;96202.34;5049913;28;20087;-78
2022/11/08 05:51:38;;;;;;;6.68;4.25;;;;;;;3.66;88.99;96211.81;5050127;28;20045;-77
2022/11/08 05:54:06;;;;;;;10.70;4.13;;;;;;;3.66;89.40;96211.81;5049643;28;20055;-76
2022/11/08 05:56:33;;;;;;;9.23;4.20;;;;;;;3.64;89.48;96205.88;5050177;28;20071;-77
2022/11/08 05:59:00;;;;;;;9.10;3.67;;;;;;;3.63;89.71;96204.28;5049781;28;20090;-77
2022/11/08 06:01:26;;;;;;;5.80;3.65;;;;;;;3.62;89.58;96205.38;5049633;28;20045;-76
2022/11/08 06:03:54;;;;;;;5.20;3.30;;;;;;;3.63;89.90;96204.28;5049955;28;20045;-76
2022/11/08 06:06:22;;;;;;;8.65;4.03;;;;;;;3.55;89.88;96202.16;5049406;28;20045;-77
2022/11/08 06:08:50;;;;;;;7.15;4.00;;;;;;;3.49;90.09;96205.94;5050023;28;20037;-80
2022/11/08 06:11:20;;;;;;;6.88;3.97;;;;;;;3.43;89.91;96199.78;5049686;28;20045;-78
2022/11/08 06:13:46;;;;;;;8.48;4.55;;;;;;;3.41;89.95;96196.56;5050151;28;20244;-79
2022/11/08 06:16:15;;;;;;;6.55;4.18;;;;;;;3.49;90.23;96195.19;5049318;28;20045;-81
2022/11/08 06:18:42;;;;;;;7.85;4.32;;;;;;;3.54;90.34;96192.47;5049943;28;20037;-82
2022/11/08 06:21:12;;;;;;;6.30;3.63;;;;;;;3.58;90.13;96199.72;5049279;28;20047;-77
2022/11/08 06:23:39;;;;;;;6.68;3.65;;;;;;;3.63;90.10;96198.91;5049777;28;20041;-78
2022/11/08 06:26:05;;;;;;;6.68;3.85;;;;;;;3.66;90.00;96195.66;5049451;28;20049;-76
2022/11/08 06:28:32;;;;;;;7.18;3.60;;;;;;;3.71;90.23;96203.72;5049961;28;20052;-78
2022/11/08 06:30:59;;;;;;;8.25;3.78;;;;;;;3.76;90.44;96211.75;5049982;28;20060;-77
2022/11/08 06:33:25;;;;;;;11.57;4.75;;;;;;;3.79;90.54;96207.69;5049315;28;20052;-76
2022/11/08 06:35:52;;;;;;;6.80;3.97;;;;;;;3.83;90.68;96204.16;5049897;28;20041;-77
2022/11/08 06:38:20;;;;;;;6.22;3.55;;;;;;;3.86;90.87;96208.19;5049279;28;20045;-76
2022/11/08 06:40:47;;;;;;;8.23;3.83;;;;;;;3.93;91.09;96212.19;5049774;28;20049;-76
2022/11/08 06:43:14;;;;;;;6.60;3.75;;;;;;;3.99;91.42;96221.03;5049241;28;20407;-76
2022/11/08 06:45:41;;;;;;;6.25;3.70;;;;;;;4.05;91.35;96221.81;5049824;28;20404;-77
2022/11/08 06:48:09;;;;;;;8.45;3.58;;;;;;;4.13;91.66;96223.94;5049235;28;20511;-78
2022/11/08 06:50:36;;;;;;;7.35;3.50;;;;;;;4.21;91.37;96225.22;5049501;28;20503;-78
2022/11/08 06:53:05;;;;;;;5.90;3.92;;;;;;;4.30;90.78;96232.44;5049200;28;20049;-76
2022/11/08 06:55:34;;;;;;;5.45;3.60;;;;;;;4.35;90.63;96220.81;5049593;28;20380;-76
2022/11/08 06:58:01;;;;;;;13.45;5.10;;;;;;;4.43;90.58;96226.38;5049611;28;20044;-77
2022/11/08 07:00:28;;;;;;;16.52;4.53;;;;;;;4.59;91.31;96218.16;5049285;28;20045;-77
2022/11/08 07:02:57;;;;;;;19.35;4.95;;;;;;;4.86;91.94;96218.47;5049446;28;20577;-77
2022/11/08 07:05:24;;;;;;;69.60;6.57;;;;;;;5.04;91.54;96208.84;5048890;28;20041;-76
2022/11/08 07:07:51;;;;;;;57.17;5.55;;;;;;;5.08;90.55;96217.19;5051316;28;20056;-77
2022/11/08 07:10:19;;;;;;;35.65;4.90;;;;;;;5.18;90.33;96219.78;5052855;28;20049;-77
2022/11/08 07:12:47;;;;;;;63.08;5.25;;;;;;;5.24;89.95;96224.03;5053177;28;20110;-82
2022/11/08 07:15:15;;;;;;;64.75;5.68;;;;;;;5.33;89.95;96227.72;5052626;28;20041;-77
2022/11/08 07:17:41;;;;;;;50.10;4.97;;;;;;;5.41;89.29;96229.75;5052903;28;20049;-77
2022/11/08 07:20:09;;;;;;;56.28;5.65;;;;;;;5.49;88.27;96231.84;5052588;28;20056;-78
2022/11/08 07:22:35;;;;;;;47.75;4.57;;;;;;;5.59;87.90;96224.72;5052889;28;20067;-77
2022/11/08 07:25:02;;;;;;;42.00;4.57;;;;;;;5.71;88.14;96227.78;5052462;28;20048;-80
2022/11/08 07:27:28;;;;;;;40.88;5.03;;;;;;;5.79;87.45;96229.84;5052856;28;20045;-77
2022/11/08 07:29:56;;;;;;;30.33;4.38;;;;;;;5.93;86.75;96230.75;5052657;28;20131;-77
2022/11/08 07:32:23;;;;;;;21.45;3.90;;;;;;;6.09;86.08;96230.56;5052410;28;20041;-77
2022/11/08 07:34:49;;;;;;;37.75;10.27;;;;;;;6.22;85.13;96227.13;5052663;28;20037;-78
2022/11/08 07:37:16;;;;;;;40.75;4.93;;;;;;;6.35;84.43;96225.56;5052289;28;20408;-76
2022/11/08 07:39:42;;;;;;;32.47;4.47;;;;;;;6.43;83.85;96233.84;5052569;28;20045;-78
2022/11/08 07:42:09;;;;;;;45.00;4.72;;;;;;;6.48;83.05;96225.66;5051888;28;20055;-79
2022/11/08 07:44:35;;;;;;;39.20;4.47;;;;;;;6.45;82.68;96225.41;5052242;28;20060;-78
2022/11/08 07:47:03;;;;;;;20.35;3.47;;;;;;;6.42;82.68;96226.00;5051883;28;20500;-78
2022/11/08 07:49:30;;;;;;;45.63;4.55;;;;;;;6.46;83.09;96222.41;5052405;28;20037;-76
2022/11/08 07:51:56;;;;;;;26.33;4.22;;;;;;;6.58;82.61;96224.69;5052536;28;20047;-77
2022/11/08 07:54:23;;;;;;;32.03;4.22;;;;;;;6.79;82.14;96230.56;5051929;28;20044;-77
2022/11/08 07:56:50;;;;;;;20.65;3.60;;;;;;;6.98;82.07;96223.16;5052370;28;20041;-76
2022/11/08 07:59:17;;;;;;;40.95;6.63;;;;;;;7.17;82.07;96214.19;5051628;28;20053;-79
2022/11/08 08:01:43;;;;;;;23.08;3.67;;;;;;;7.38;81.28;96220.81;5052262;28;20040;-77
2022/11/08 08:04:12;;;;;;;29.25;4.55;;;;;;;7.56;79.63;96222.63;5051353;28;20496;-76
2022/11/08 08:06:38;;;;;;;28.50;4.18;;;;;;;7.85;78.45;96214.16;5052259;28;20454;-79
2022/11/08 08:09:05;;;;;;;19.05;3.47;;;;;;;8.07;77.23;96216.13;5051766;28;20052;-77
2022/11/08 08:11:31;;;;;;;26.35;4.00;;;;;;;8.25;75.91;96210.88;5051871;28;20040;-78
2022/11/08 08:13:58;;;;;;;41.88;5.30;;;;;;;8.31;76.21;96209.66;5052076;28;20060;-79
2022/11/08 08:16:24;;;;;;;31.90;4.20;;;;;;;8.34;76.73;96209.03;5051450;28;20408;-76
2022/11/08 08:18:51;;;;;;;27.58;4.47;;;;;;;8.36;75.74;96201.44;5051728;28;20136;-77
2022/11/08 08:21:19;;;;;;;25.27;3.92;;;;;;;8.42;75.22;96199.41;5051460;28;20045;-78
2022/11/08 08:23:45;;;;;;;24.38;4.00;;;;;;;8.49;74.18;96205.19;5051765;28;20502;-80
2022/11/08 08:26:12;;;;;;;18.25;3.95;;;;;;;8.56;74.13;96195.50;5051353;28;20065;-77
2022/11/08 08:28:38;;;;;;;20.10;3.80;;;;;;;8.57;74.78;96196.31;5051747;28;20048;-76
2022/11/08 08:31:06;;;;;;;17.38;3.75;;;;;;;8.47;74.82;96197.34;5051391;28;20056;-78
2022/11/08 08:33:33;;;;;;;23.55;3.78;;;;;;;8.45;74.56;96202.28;5051753;28;20466;-77
2022/11/08 08:36:00;;;;;;;26.45;3.72;;;;;;;8.37;74.87;96197.59;5051543;28;20097;-78
2022/11/08 08:38:29;;;;;;;30.65;4.35;;;;;;;8.43;74.41;96206.41;5051155;28;20045;-77
2022/11/08 08:40:56;;;;;;;28.13;3.88;;;;;;;8.45;74.39;96204.97;5051335;28;20044;-78
2022/11/08 08:43:23;;;;;;;24.50;3.38;;;;;;;8.50;74.95;96202.16;5050926;28;20055;-77
2022/11/08 08:45:49;;;;;;;20.23;3.53;;;;;;;8.52;74.88;96197.22;5051321;28;20557;-77
2022/11/08 08:48:16;;;;;;;28.83;4.50;;;;;;;8.60;74.08;96195.69;5050843;28;20518;-76
2022/11/08 08:50:43;;;;;;;22.35;3.67;;;;;;;8.70;74.33;96194.63;5051346;28;20041;-78
2022/11/08 08:53:10;;;;;;;15.27;3.10;;;;;;;8.70;73.94;96194.63;5050876;28;20123;-79
2022/11/08 08:55:38;;;;;;;6.82;3.08;;;;;;;8.72;74.18;96189.69;5051307;28;20040;-79
2022/11/08 08:58:04;;;;;;;28.38;4.40;;;;;;;8.79;74.41;96200.94;5050651;28;20045;-76
2022/11/08 09:00:31;;;;;;;14.85;3.03;;;;;;;8.84;74.28;96196.16;5051075;28;20048;-78
2022/11/08 09:03:02;;;;;;;20.80;3.80;;;;;;;8.92;73.54;96201.94;5051044;28;20045;-78
2022/11/08 09:05:30;;;;;;;19.00;3.50;;;;;;;9.00;73.61;96193.06;5050766;28;20048;-77
2022/11/08 09:07:56;;;;;;;12.63;3.15;;;;;;;9.02;72.84;96196.25;5051040;28;20069;-78
2022/11/08 09:10:24;;;;;;;5.40;2.97;;;;;;;9.12;72.95;96202.22;5050469;28;20056;-77
2022/11/08 09:12:52;;;;;;;7.65;3.40;;;;;;;9.23;72.65;96201.94;5050860;28;20094;-78
2022/11/08 09:15:19;;;;;;;13.75;2.85;;;;;;;9.35;71.56;96197.53;5050462;28;20048;-78
2022/11/08 09:17:46;;;;;;;20.45;3.58;;;;;;;9.47;72.52;96196.16;5050722;28;20049;-78
2022/11/08 09:20:13;;;;;;;17.48;3.35;;;;;;;9.57;71.91;96196.66;5050318;28;20041;-77
2022/11/08 09:22:39;;;;;;;20.73;3.22;;;;;;;9.64;71.18;96191.56;5050835;28;20052;-81
2022/11/08 09:25:06;;;;;;;14.07;3.55;;;;;;;9.86;71.00;96195.28;5050211;28;20045;-77
2022/11/08 09:27:33;;;;;;;27.92;4.15;;;;;;;10.11;70.17;96205.41;5050692;28;20041;-80
2022/11/08 09:30:01;;;;;;;33.45;4.68;;;;;;;10.33;68.56;96198.25;5050104;28;20048;-77
2022/11/08 09:32:27;;;;;;;5.10;2.80;;;;;;;10.51;67.87;96186.25;5050309;28;20044;-78
2022/11/08 09:34:54;;;;;;;3.30;2.22;;;;;;;10.73;67.58;96189.91;5050398;28;20037;-76
2022/11/08 09:37:21;;;;;;;3.63;2.30;;;;;;;10.86;66.51;96197.91;5050088;28;20049;-76
2022/11/08 09:39:47;;;;;;;4.97;2.58;;;;;;;10.97;67.54;96198.38;5050356;28;20040;-79
2022/11/08 09:42:28;;;;;;;14.10;5.38;;;;;;;11.19;67.14;96202.78;5049989;28;20171;-78
2022/11/08 09:45:11;;;;;;;5.85;3.20;;;;;;;11.43;66.03;96199.47;5050413;28;20436;-78
2022/11/08 09:47:39;;;;;;;;;;;;;;;11.40;65.01;96194.69;5050746;28;20041;-78
2022/11/08 09:50:15;;;;;;;4.40;2.38;;;;;;;11.42;64.18;96195.16;5050061;28;19921;-80
2022/11/08 09:52:45;;;;;;;3.45;2.25;;;;;;;11.60;63.56;96202.16;5050420;28;20045;-76
2022/11/08 09:55:19;;;;;;;5.85;2.20;;;;;;;11.76;63.52;96203.19;5049871;28;20455;-78
2022/11/08 09:57:59;;;;;;;4.00;2.10;;;;;;;11.92;63.55;96206.19;5050315;28;20041;-82
2022/11/08 10:00:28;;;;;;;16.02;3.28;;;;;;;12.16;63.24;96202.84;5049761;28;20048;-79
2022/11/08 10:02:55;;;;;;;5.60;2.50;;;;;;;12.16;62.75;96200.13;5050181;28;20037;-78
2022/11/08 10:05:22;;;;;;;3.72;2.13;;;;;;;11.98;62.91;96198.59;5049586;28;20080;-77
2022/11/08 10:07:57;;;;;;;3.55;2.15;;;;;;;11.83;63.42;96191.00;5050318;28;20644;-77
2022/11/08 10:10:36;;;;;;;14.15;3.08;;;;;;;11.68;64.11;96195.06;5049533;28;20057;-77
2022/11/08 10:13:12;;;;;;;19.50;4.70;;;;;;;11.71;64.88;96192.47;5049710;28;20458;-78
2022/11/08 10:15:49;;;;;;;21.55;3.65;;;;;;;11.71;64.79;96189.75;5050037;28;20049;-76
2022/11/08 10:18:33;;;;;;;9.98;3.55;;;;;;;11.73;65.20;96195.66;5049717;28;20235;-77
2022/11/08 10:21:08;;;;;;;18.35;3.20;;;;;;;11.69;65.35;96185.72;5050012;28;20059;-78
2022/11/08 10:23:43;;;;;;;43.70;6.00;;;;;;;11.60;66.11;96182.28;5049925;28;20041;-77
2022/11/08 10:26:14;;;;;;;37.92;4.20;;;;;;;11.55;66.92;96183.25;5049517;28;20102;-77
2022/11/08 10:28:46;;;;;;;45.38;4.43;;;;;;;11.53;66.45;96174.59;5050021;28;20045;-77
2022/11/08 10:31:15;;;;;;;13.20;3.30;;;;;;;11.56;66.56;96176.66;5049228;28;20141;-78
2022/11/08 10:33:45;;;;;;;4.65;2.55;;;;;;;11.76;66.42;96173.19;5049868;28;20041;-77
2022/11/08 10:36:20;;;;;;;5.68;2.85;;;;;;;12.31;64.97;96171.41;5049450;28;20056;-77
2022/11/08 10:38:54;;;;;;;3.90;2.40;;;;;;;12.68;63.35;96172.34;5049856;28;20480;-78
2022/11/08 10:41:25;;;;;;;4.50;2.28;;;;;;;12.70;63.05;96169.31;5049535;28;20060;-81
2022/11/08 10:43:56;;;;;;;4.20;2.65;;;;;;;12.63;62.51;96175.28;5053342;28;20045;-82
2022/11/08 10:46:36;;;;;;;7.45;2.83;;;;;;;12.79;62.98;96173.56;5053104;28;20048;-81
2022/11/08 10:49:12;;;;;;;7.13;2.78;;;;;;;13.08;62.26;96163.59;5053237;28;20417;-77
2022/11/08 10:51:39;;;;;;;5.30;2.95;;;;;;;13.18;61.11;96162.38;5053705;28;20045;-77
2022/11/08 10:54:05;;;;;;;6.80;3.03;;;;;;;13.32;63.42;96158.22;5053017;28;20503;-77
2022/11/08 10:56:54;;;;;;;4.75;2.53;;;;;;;13.53;61.17;96157.31;5053501;28;20041;-77
2022/11/08 10:59:30;;;;;;;5.63;2.47;;;;;;;13.60;61.24;96146.59;5052890;28;20488;-78
2022/11/08 11:01:58;;;;;;;4.40;2.80;;;;;;;13.85;60.66;96150.13;5053624;28;20044;-77
2022/11/08 11:04:27;;;;;;;5.07;2.60;;;;;;;13.89;58.70;96148.31;5052765;28;20041;-78
2022/11/08 11:06:54;;;;;;;4.57;2.70;;;;;;;14.00;58.71;96143.94;5053265;28;20041;-76
2022/11/08 11:09:26;;;;;;;9.68;3.72;;;;;;;14.13;57.13;96131.03;5052650;28;20075;-76
2022/11/08 11:11:57;;;;;;;13.90;3.47;;;;;;;14.26;57.44;96135.34;5053286;28;20041;-77
2022/11/08 11:14:24;;;;;;;8.18;3.75;;;;;;;14.33;57.32;96141.00;5052528;28;20784;-77
2022/11/08 11:16:56;;;;;;;6.68;3.25;;;;;;;14.24;56.98;96142.28;5053042;28;20037;-78
2022/11/08 11:19:25;;;;;;;7.38;3.40;;;;;;;14.20;57.44;96146.84;5052603;28;20044;-76
2022/11/08 11:21:56;;;;;;;7.60;2.85;;;;;;;14.13;57.71;96136.50;5052908;28;20045;-77
2022/11/08 11:24:24;;;;;;;6.43;2.92;;;;;;;14.07;58.63;96135.16;5052358;28;20048;-77
2022/11/08 11:27:05;;;;;;;14.85;2.85;;;;;;;14.03;59.21;96131.50;5052990;28;20041;-77
2022/11/08 11:29:33;;;;;;;8.75;3.70;;;;;;;14.07;59.28;96132.41;5052586;28;20055;-77
2022/11/08 11:32:22;;;;;;;9.10;3.20;;;;;;;14.11;59.79;96136.06;5052863;28;20526;-80
2022/11/08 11:34:54;;;;;;;7.50;3.22;;;;;;;14.09;60.49;96127.38;5052770;28;20045;-77
2022/11/08 11:37:28;;;;;;;2.80;2.10;;;;;;;14.29;59.62;96137.38;5052321;28;20565;-77
2022/11/08 11:40:03;;;;;;;4.80;2.55;;;;;;;14.33;59.30;96135.53;5052617;28;20045;-78
2022/11/08 11:42:37;;;;;;;4.50;2.70;;;;;;;14.66;58.15;96142.75;5052369;28;20045;-77
2022/11/08 11:45:12;;;;;;;3.53;2.22;;;;;;;14.67;58.05;96127.91;5052098;28;20063;-77
2022/11/08 11:47:46;;;;;;;5.43;2.65;;;;;;;14.59;58.32;96126.13;5052505;28;20047;-78
2022/11/08 11:50:28;;;;;;;3.97;2.70;;;;;;;14.57;58.48;96111.97;5051862;28;20099;-77
2022/11/08 11:52:55;;;;;;;6.65;2.33;;;;;;;14.49;58.64;96115.66;5052009;28;20515;-77
2022/11/08 11:55:30;;;;;;;5.55;2.83;;;;;;;14.56;58.37;96118.56;5051703;28;20049;-76
2022/11/08 11:58:07;;;;;;;3.15;2.17;;;;;;;14.93;58.37;96115.66;5052443;28;20044;-77
2022/11/08 12:00:37;;;;;;;6.47;2.65;;;;;;;15.05;57.82;96121.09;5051908;28;20404;-79